sensor_id;sensor_type;location;lat;lon;timestamp;P1;durP1;ratioP1;P2;durP2;ratioP2
64826;SDS011;51265;53.972;12.286;2023-04-15T00:00:42;146.80;;;45.08;;
64826;SDS011;51265;53.972;12.286;2023-04-15T00:03:08;122.50;;;42.47;;
64826;SDS011;51265;53.972;12.286;2023-04-15T00:05:35;164.65;;;46.13;;
64826;SDS011;51265;53.972;12.286;2023-04-15T00:08:02;159.90;;;45.53;;
64826;SDS011;51265;53.972;12.286;2023-04-15T00:10:28;171.45;;;45.83;;
64826;SDS011;51265;53.972;12.286;2023-04-15T00:12:54;153.27;;;44.42;;
64826;SDS011;51265;53.972;12.286;2023-04-15T00:15:21;145.75;;;43.50;;
64826;SDS011;51265;53.972;12.286;2023-04-15T00:17:48;133.27;;;42.63;;
64826;SDS011;51265;53.972;12.286;2023-04-15T00:20:17;139.50;;;41.70;;
64826;SDS011;51265;53.972;12.286;2023-04-15T00:22:43;162.98;;;44.63;;
64826;SDS011;51265;53.972;12.286;2023-04-15T00:25:09;126.05;;;40.90;;
64826;SDS011;51265;53.972;12.286;2023-04-15T00:27:35;132.02;;;40.92;;
64826;SDS011;51265;53.972;12.286;2023-04-15T00:30:02;167.93;;;45.20;;
64826;SDS011;51265;53.972;12.286;2023-04-15T00:32:28;122.07;;;41.55;;
64826;SDS011;51265;53.972;12.286;2023-04-15T00:34:55;214.25;;;46.40;;
64826;SDS011;51265;53.972;12.286;2023-04-15T00:37:21;142.18;;;45.15;;
64826;SDS011;51265;53.972;12.286;2023-04-15T00:39:47;186.88;;;46.03;;
64826;SDS011;51265;53.972;12.286;2023-04-15T00:42:14;186.45;;;46.08;;
64826;SDS011;51265;53.972;12.286;2023-04-15T00:44:40;170.63;;;46.47;;
64826;SDS011;51265;53.972;12.286;2023-04-15T00:47:07;133.02;;;41.50;;
64826;SDS011;51265;53.972;12.286;2023-04-15T00:49:34;133.27;;;41.35;;
64826;SDS011;51265;53.972;12.286;2023-04-15T00:52:01;211.82;;;45.58;;
64826;SDS011;51265;53.972;12.286;2023-04-15T00:54:28;117.10;;;40.67;;
64826;SDS011;51265;53.972;12.286;2023-04-15T00:56:54;184.20;;;44.85;;
64826;SDS011;51265;53.972;12.286;2023-04-15T00:59:21;143.27;;;42.60;;
64826;SDS011;51265;53.972;12.286;2023-04-15T01:01:47;154.02;;;44.47;;
64826;SDS011;51265;53.972;12.286;2023-04-15T01:04:14;340.65;;;51.22;;
64826;SDS011;51265;53.972;12.286;2023-04-15T01:06:41;216.23;;;45.80;;
64826;SDS011;51265;53.972;12.286;2023-04-15T01:09:07;235.48;;;46.90;;
64826;SDS011;51265;53.972;12.286;2023-04-15T01:11:33;119.07;;;40.67;;
64826;SDS011;51265;53.972;12.286;2023-04-15T01:14:07;166.50;;;44.50;;
64826;SDS011;51265;53.972;12.286;2023-04-15T01:16:36;140.85;;;40.67;;
64826;SDS011;51265;53.972;12.286;2023-04-15T01:19:05;146.18;;;42.53;;
64826;SDS011;51265;53.972;12.286;2023-04-15T01:21:35;161.30;;;44.28;;
64826;SDS011;51265;53.972;12.286;2023-04-15T01:24:07;169.93;;;45.30;;
64826;SDS011;51265;53.972;12.286;2023-04-15T01:26:38;194.68;;;44.40;;
64826;SDS011;51265;53.972;12.286;2023-04-15T01:29:08;158.45;;;42.85;;
64826;SDS011;51265;53.972;12.286;2023-04-15T01:31:34;175.57;;;43.47;;
64826;SDS011;51265;53.972;12.286;2023-04-15T01:34:01;165.55;;;42.60;;
64826;SDS011;51265;53.972;12.286;2023-04-15T01:36:27;270.63;;;46.72;;
64826;SDS011;51265;53.972;12.286;2023-04-15T01:38:53;232.95;;;46.20;;
64826;SDS011;51265;53.972;12.286;2023-04-15T01:41:25;164.52;;;43.10;;
64826;SDS011;51265;53.972;12.286;2023-04-15T01:43:52;242.73;;;47.35;;
64826;SDS011;51265;53.972;12.286;2023-04-15T01:46:18;162.77;;;42.70;;
64826;SDS011;51265;53.972;12.286;2023-04-15T01:48:44;161.65;;;43.60;;
64826;SDS011;51265;53.972;12.286;2023-04-15T01:51:11;133.27;;;41.33;;
64826;SDS011;51265;53.972;12.286;2023-04-15T01:53:37;143.85;;;41.10;;
64826;SDS011;51265;53.972;12.286;2023-04-15T01:56:04;159.52;;;42.38;;
64826;SDS011;51265;53.972;12.286;2023-04-15T01:58:30;128.48;;;39.72;;
64826;SDS011;51265;53.972;12.286;2023-04-15T02:00:56;127.72;;;41.72;;
64826;SDS011;51265;53.972;12.286;2023-04-15T02:03:23;127.35;;;37.72;;
64826;SDS011;51265;53.972;12.286;2023-04-15T02:05:51;145.55;;;43.38;;
64826;SDS011;51265;53.972;12.286;2023-04-15T02:08:18;127.53;;;41.13;;
64826;SDS011;51265;53.972;12.286;2023-04-15T02:10:44;120.90;;;41.05;;
64826;SDS011;51265;53.972;12.286;2023-04-15T02:13:10;139.00;;;42.20;;
64826;SDS011;51265;53.972;12.286;2023-04-15T02:15:36;118.90;;;39.92;;
64826;SDS011;51265;53.972;12.286;2023-04-15T02:18:03;122.30;;;41.85;;
64826;SDS011;51265;53.972;12.286;2023-04-15T02:20:29;158.02;;;43.17;;
64826;SDS011;51265;53.972;12.286;2023-04-15T02:22:57;115.57;;;40.92;;
64826;SDS011;51265;53.972;12.286;2023-04-15T02:25:23;118.28;;;41.53;;
64826;SDS011;51265;53.972;12.286;2023-04-15T02:27:50;121.55;;;41.05;;
64826;SDS011;51265;53.972;12.286;2023-04-15T02:30:16;137.48;;;43.63;;
64826;SDS011;51265;53.972;12.286;2023-04-15T02:32:42;178.38;;;44.15;;
64826;SDS011;51265;53.972;12.286;2023-04-15T02:35:09;131.63;;;41.63;;
64826;SDS011;51265;53.972;12.286;2023-04-15T02:37:36;116.47;;;40.47;;
64826;SDS011;51265;53.972;12.286;2023-04-15T02:40:11;158.77;;;43.05;;
64826;SDS011;51265;53.972;12.286;2023-04-15T02:42:38;112.45;;;40.63;;
64826;SDS011;51265;53.972;12.286;2023-04-15T02:45:07;115.97;;;41.35;;
64826;SDS011;51265;53.972;12.286;2023-04-15T02:47:34;112.75;;;39.92;;
64826;SDS011;51265;53.972;12.286;2023-04-15T02:50:02;115.93;;;41.40;;
64826;SDS011;51265;53.972;12.286;2023-04-15T02:52:30;102.30;;;41.22;;
64826;SDS011;51265;53.972;12.286;2023-04-15T02:54:56;116.22;;;41.58;;
64826;SDS011;51265;53.972;12.286;2023-04-15T02:57:26;124.18;;;42.15;;
64826;SDS011;51265;53.972;12.286;2023-04-15T02:59:54;164.95;;;47.03;;
64826;SDS011;51265;53.972;12.286;2023-04-15T03:02:20;138.15;;;43.33;;
64826;SDS011;51265;53.972;12.286;2023-04-15T03:04:47;105.22;;;40.72;;
64826;SDS011;51265;53.972;12.286;2023-04-15T03:07:13;110.22;;;41.47;;
64826;SDS011;51265;53.972;12.286;2023-04-15T03:09:39;106.70;;;41.85;;
64826;SDS011;51265;53.972;12.286;2023-04-15T03:12:06;114.97;;;41.00;;
64826;SDS011;51265;53.972;12.286;2023-04-15T03:14:32;104.20;;;41.00;;
64826;SDS011;51265;53.972;12.286;2023-04-15T03:16:59;135.70;;;43.28;;
64826;SDS011;51265;53.972;12.286;2023-04-15T03:19:25;141.43;;;44.78;;
64826;SDS011;51265;53.972;12.286;2023-04-15T03:21:51;103.85;;;41.10;;
64826;SDS011;51265;53.972;12.286;2023-04-15T03:24:19;102.68;;;41.83;;
64826;SDS011;51265;53.972;12.286;2023-04-15T03:26:45;85.53;;;40.03;;
64826;SDS011;51265;53.972;12.286;2023-04-15T03:29:15;100.20;;;41.08;;
64826;SDS011;51265;53.972;12.286;2023-04-15T03:31:42;104.13;;;40.22;;
64826;SDS011;51265;53.972;12.286;2023-04-15T03:34:08;105.43;;;39.72;;
64826;SDS011;51265;53.972;12.286;2023-04-15T03:36:35;135.38;;;43.20;;
64826;SDS011;51265;53.972;12.286;2023-04-15T03:39:01;86.70;;;39.70;;
64826;SDS011;51265;53.972;12.286;2023-04-15T03:41:28;88.40;;;40.38;;
64826;SDS011;51265;53.972;12.286;2023-04-15T03:43:54;85.85;;;38.85;;
64826;SDS011;51265;53.972;12.286;2023-04-15T03:46:20;93.15;;;40.20;;
64826;SDS011;51265;53.972;12.286;2023-04-15T03:48:46;97.43;;;40.75;;
64826;SDS011;51265;53.972;12.286;2023-04-15T03:51:13;109.63;;;41.20;;
64826;SDS011;51265;53.972;12.286;2023-04-15T03:53:39;92.20;;;37.55;;
64826;SDS011;51265;53.972;12.286;2023-04-15T03:56:05;83.63;;;37.22;;
64826;SDS011;51265;53.972;12.286;2023-04-15T03:58:32;91.13;;;37.88;;
64826;SDS011;51265;53.972;12.286;2023-04-15T04:00:58;84.00;;;37.22;;
64826;SDS011;51265;53.972;12.286;2023-04-15T04:03:24;84.72;;;36.78;;
64826;SDS011;51265;53.972;12.286;2023-04-15T04:05:50;75.75;;;35.35;;
64826;SDS011;51265;53.972;12.286;2023-04-15T04:08:16;80.68;;;35.78;;
64826;SDS011;51265;53.972;12.286;2023-04-15T04:10:44;76.90;;;35.28;;
64826;SDS011;51265;53.972;12.286;2023-04-15T04:13:10;75.53;;;36.17;;
64826;SDS011;51265;53.972;12.286;2023-04-15T04:15:36;78.05;;;34.97;;
64826;SDS011;51265;53.972;12.286;2023-04-15T04:18:02;74.07;;;35.10;;
64826;SDS011;51265;53.972;12.286;2023-04-15T04:20:29;82.20;;;35.78;;
64826;SDS011;51265;53.972;12.286;2023-04-15T04:22:57;73.53;;;35.47;;
64826;SDS011;51265;53.972;12.286;2023-04-15T04:25:23;68.13;;;33.97;;
64826;SDS011;51265;53.972;12.286;2023-04-15T04:27:49;72.25;;;34.20;;
64826;SDS011;51265;53.972;12.286;2023-04-15T04:30:16;79.07;;;34.88;;
64826;SDS011;51265;53.972;12.286;2023-04-15T04:32:42;67.63;;;32.42;;
64826;SDS011;51265;53.972;12.286;2023-04-15T04:35:08;71.70;;;34.17;;
64826;SDS011;51265;53.972;12.286;2023-04-15T04:37:34;72.65;;;32.72;;
64826;SDS011;51265;53.972;12.286;2023-04-15T04:40:01;65.70;;;32.67;;
64826;SDS011;51265;53.972;12.286;2023-04-15T04:42:27;70.53;;;34.22;;
64826;SDS011;51265;53.972;12.286;2023-04-15T04:44:53;80.15;;;32.00;;
64826;SDS011;51265;53.972;12.286;2023-04-15T04:47:19;72.80;;;32.10;;
64826;SDS011;51265;53.972;12.286;2023-04-15T04:49:46;58.80;;;30.75;;
64826;SDS011;51265;53.972;12.286;2023-04-15T04:52:12;60.53;;;30.23;;
64826;SDS011;51265;53.972;12.286;2023-04-15T04:54:38;71.40;;;32.15;;
64826;SDS011;51265;53.972;12.286;2023-04-15T04:57:04;65.50;;;31.88;;
64826;SDS011;51265;53.972;12.286;2023-04-15T04:59:32;69.25;;;32.83;;
64826;SDS011;51265;53.972;12.286;2023-04-15T05:01:58;57.63;;;30.88;;
64826;SDS011;51265;53.972;12.286;2023-04-15T05:04:24;68.80;;;31.75;;
64826;SDS011;51265;53.972;12.286;2023-04-15T05:06:51;72.55;;;31.65;;
64826;SDS011;51265;53.972;12.286;2023-04-15T05:09:17;65.85;;;32.17;;
64826;SDS011;51265;53.972;12.286;2023-04-15T05:11:44;79.40;;;33.05;;
64826;SDS011;51265;53.972;12.286;2023-04-15T05:14:10;67.45;;;30.67;;
64826;SDS011;51265;53.972;12.286;2023-04-15T05:16:36;71.35;;;32.03;;
64826;SDS011;51265;53.972;12.286;2023-04-15T05:19:02;65.72;;;31.02;;
64826;SDS011;51265;53.972;12.286;2023-04-15T05:21:28;70.78;;;32.92;;
64826;SDS011;51265;53.972;12.286;2023-04-15T05:23:56;72.60;;;32.53;;
64826;SDS011;51265;53.972;12.286;2023-04-15T05:26:22;67.00;;;31.95;;
64826;SDS011;51265;53.972;12.286;2023-04-15T05:28:49;59.67;;;31.02;;
64826;SDS011;51265;53.972;12.286;2023-04-15T05:31:15;62.60;;;31.52;;
64826;SDS011;51265;53.972;12.286;2023-04-15T05:33:41;61.20;;;31.58;;
64826;SDS011;51265;53.972;12.286;2023-04-15T05:36:07;63.17;;;31.33;;
64826;SDS011;51265;53.972;12.286;2023-04-15T05:38:34;73.45;;;31.90;;
64826;SDS011;51265;53.972;12.286;2023-04-15T05:41:00;66.00;;;32.35;;
64826;SDS011;51265;53.972;12.286;2023-04-15T05:43:26;144.27;;;81.03;;
64826;SDS011;51265;53.972;12.286;2023-04-15T05:45:52;60.15;;;31.90;;
64826;SDS011;51265;53.972;12.286;2023-04-15T05:48:18;59.67;;;29.90;;
64826;SDS011;51265;53.972;12.286;2023-04-15T05:50:45;58.97;;;31.20;;
64826;SDS011;51265;53.972;12.286;2023-04-15T05:53:12;55.72;;;28.90;;
64826;SDS011;51265;53.972;12.286;2023-04-15T05:55:38;56.20;;;29.65;;
64826;SDS011;51265;53.972;12.286;2023-04-15T05:58:04;55.70;;;28.67;;
64826;SDS011;51265;53.972;12.286;2023-04-15T06:00:30;50.30;;;28.83;;
64826;SDS011;51265;53.972;12.286;2023-04-15T06:02:57;51.47;;;28.13;;
64826;SDS011;51265;53.972;12.286;2023-04-15T06:05:23;51.95;;;28.20;;
64826;SDS011;51265;53.972;12.286;2023-04-15T06:07:50;53.45;;;27.88;;
64826;SDS011;51265;53.972;12.286;2023-04-15T06:10:16;52.80;;;28.23;;
64826;SDS011;51265;53.972;12.286;2023-04-15T06:12:43;41.55;;;24.65;;
64826;SDS011;51265;53.972;12.286;2023-04-15T06:15:09;48.97;;;26.13;;
64826;SDS011;51265;53.972;12.286;2023-04-15T06:17:36;40.03;;;25.15;;
64826;SDS011;51265;53.972;12.286;2023-04-15T06:20:03;44.13;;;25.15;;
64826;SDS011;51265;53.972;12.286;2023-04-15T06:22:29;46.70;;;24.63;;
64826;SDS011;51265;53.972;12.286;2023-04-15T06:24:55;53.38;;;29.90;;
64826;SDS011;51265;53.972;12.286;2023-04-15T06:27:21;63.92;;;37.70;;
64826;SDS011;51265;53.972;12.286;2023-04-15T06:29:48;41.45;;;24.50;;
64826;SDS011;51265;53.972;12.286;2023-04-15T06:32:14;33.92;;;21.35;;
64826;SDS011;51265;53.972;12.286;2023-04-15T06:34:40;35.17;;;21.13;;
64826;SDS011;51265;53.972;12.286;2023-04-15T06:37:06;35.47;;;21.77;;
64826;SDS011;51265;53.972;12.286;2023-04-15T06:39:34;30.80;;;20.73;;
64826;SDS011;51265;53.972;12.286;2023-04-15T06:42:01;35.85;;;21.27;;
64826;SDS011;51265;53.972;12.286;2023-04-15T06:44:28;36.35;;;20.67;;
64826;SDS011;51265;53.972;12.286;2023-04-15T06:46:54;34.35;;;20.73;;
64826;SDS011;51265;53.972;12.286;2023-04-15T06:49:21;30.73;;;19.70;;
64826;SDS011;51265;53.972;12.286;2023-04-15T06:51:47;29.65;;;18.40;;
64826;SDS011;51265;53.972;12.286;2023-04-15T06:54:16;26.92;;;18.60;;
64826;SDS011;51265;53.972;12.286;2023-04-15T06:56:42;26.13;;;18.35;;
64826;SDS011;51265;53.972;12.286;2023-04-15T06:59:08;22.60;;;15.82;;
64826;SDS011;51265;53.972;12.286;2023-04-15T07:01:34;23.35;;;16.75;;
64826;SDS011;51265;53.972;12.286;2023-04-15T07:04:01;27.38;;;17.25;;
64826;SDS011;51265;53.972;12.286;2023-04-15T07:06:27;24.45;;;17.35;;
64826;SDS011;51265;53.972;12.286;2023-04-15T07:08:53;26.65;;;17.00;;
64826;SDS011;51265;53.972;12.286;2023-04-15T07:11:20;24.23;;;17.10;;
64826;SDS011;51265;53.972;12.286;2023-04-15T07:13:46;22.48;;;16.75;;
64826;SDS011;51265;53.972;12.286;2023-04-15T07:16:13;24.35;;;16.73;;
64826;SDS011;51265;53.972;12.286;2023-04-15T07:18:39;23.58;;;16.23;;
64826;SDS011;51265;53.972;12.286;2023-04-15T07:21:05;23.90;;;16.40;;
64826;SDS011;51265;53.972;12.286;2023-04-15T07:23:31;19.90;;;15.90;;
64826;SDS011;51265;53.972;12.286;2023-04-15T07:25:57;28.52;;;21.05;;
64826;SDS011;51265;53.972;12.286;2023-04-15T07:28:23;30.92;;;22.67;;
64826;SDS011;51265;53.972;12.286;2023-04-15T07:30:50;28.70;;;20.00;;
64826;SDS011;51265;53.972;12.286;2023-04-15T07:33:16;23.90;;;16.13;;
64826;SDS011;51265;53.972;12.286;2023-04-15T07:35:43;20.25;;;15.43;;
64826;SDS011;51265;53.972;12.286;2023-04-15T07:38:10;18.83;;;14.73;;
64826;SDS011;51265;53.972;12.286;2023-04-15T07:40:38;21.10;;;14.85;;
64826;SDS011;51265;53.972;12.286;2023-04-15T07:43:05;20.92;;;14.40;;
64826;SDS011;51265;53.972;12.286;2023-04-15T07:45:31;20.15;;;13.68;;
64826;SDS011;51265;53.972;12.286;2023-04-15T07:47:57;20.10;;;13.40;;
64826;SDS011;51265;53.972;12.286;2023-04-15T07:50:23;16.70;;;12.60;;
64826;SDS011;51265;53.972;12.286;2023-04-15T07:52:50;21.33;;;13.10;;
64826;SDS011;51265;53.972;12.286;2023-04-15T07:55:17;19.38;;;13.35;;
64826;SDS011;51265;53.972;12.286;2023-04-15T07:57:46;20.85;;;11.27;;
64826;SDS011;51265;53.972;12.286;2023-04-15T08:00:12;17.20;;;12.60;;
64826;SDS011;51265;53.972;12.286;2023-04-15T08:02:40;15.75;;;12.38;;
64826;SDS011;51265;53.972;12.286;2023-04-15T08:05:07;17.50;;;12.40;;
64826;SDS011;51265;53.972;12.286;2023-04-15T08:07:36;18.25;;;12.23;;
64826;SDS011;51265;53.972;12.286;2023-04-15T08:10:03;14.88;;;11.85;;
64826;SDS011;51265;53.972;12.286;2023-04-15T08:12:30;16.42;;;12.48;;
64826;SDS011;51265;53.972;12.286;2023-04-15T08:14:56;13.35;;;11.40;;
64826;SDS011;51265;53.972;12.286;2023-04-15T08:17:22;17.15;;;12.55;;
64826;SDS011;51265;53.972;12.286;2023-04-15T08:19:49;15.00;;;11.77;;
64826;SDS011;51265;53.972;12.286;2023-04-15T08:22:15;18.13;;;11.82;;
64826;SDS011;51265;53.972;12.286;2023-04-15T08:24:41;17.38;;;11.63;;
64826;SDS011;51265;53.972;12.286;2023-04-15T08:27:08;15.52;;;11.60;;
64826;SDS011;51265;53.972;12.286;2023-04-15T08:29:34;15.05;;;11.05;;
64826;SDS011;51265;53.972;12.286;2023-04-15T08:32:01;15.48;;;11.38;;
64826;SDS011;51265;53.972;12.286;2023-04-15T08:34:28;17.23;;;11.93;;
64826;SDS011;51265;53.972;12.286;2023-04-15T08:36:54;14.20;;;11.65;;
64826;SDS011;51265;53.972;12.286;2023-04-15T08:39:21;16.55;;;11.48;;
64826;SDS011;51265;53.972;12.286;2023-04-15T08:41:51;61.22;;;43.20;;
64826;SDS011;51265;53.972;12.286;2023-04-15T08:44:25;15.50;;;12.50;;
64826;SDS011;51265;53.972;12.286;2023-04-15T08:46:54;14.85;;;11.48;;
64826;SDS011;51265;53.972;12.286;2023-04-15T08:49:22;13.80;;;10.43;;
64826;SDS011;51265;53.972;12.286;2023-04-15T08:51:52;12.38;;;10.10;;
64826;SDS011;51265;53.972;12.286;2023-04-15T08:54:18;11.88;;;9.35;;
64826;SDS011;51265;53.972;12.286;2023-04-15T08:56:45;12.45;;;9.45;;
64826;SDS011;51265;53.972;12.286;2023-04-15T08:59:12;14.52;;;9.95;;
64826;SDS011;51265;53.972;12.286;2023-04-15T09:01:39;15.07;;;9.93;;
64826;SDS011;51265;53.972;12.286;2023-04-15T09:04:05;14.43;;;10.15;;
64826;SDS011;51265;53.972;12.286;2023-04-15T09:06:33;13.05;;;9.73;;
64826;SDS011;51265;53.972;12.286;2023-04-15T09:08:59;17.98;;;10.13;;
64826;SDS011;51265;53.972;12.286;2023-04-15T09:11:26;13.95;;;9.85;;
64826;SDS011;51265;53.972;12.286;2023-04-15T09:13:55;12.40;;;9.70;;
64826;SDS011;51265;53.972;12.286;2023-04-15T09:16:22;13.15;;;9.77;;
64826;SDS011;51265;53.972;12.286;2023-04-15T09:18:48;13.27;;;10.07;;
64826;SDS011;51265;53.972;12.286;2023-04-15T09:21:16;12.75;;;9.18;;
64826;SDS011;51265;53.972;12.286;2023-04-15T09:26:36;11.43;;;8.38;;
64826;SDS011;51265;53.972;12.286;2023-04-15T09:29:05;11.32;;;8.38;;
64826;SDS011;51265;53.972;12.286;2023-04-15T09:31:33;14.70;;;8.65;;
64826;SDS011;51265;53.972;12.286;2023-04-15T09:34:00;10.57;;;8.25;;
64826;SDS011;51265;53.972;12.286;2023-04-15T09:36:26;11.93;;;8.40;;
64826;SDS011;51265;53.972;12.286;2023-04-15T09:38:57;11.02;;;8.07;;
64826;SDS011;51265;53.972;12.286;2023-04-15T09:41:24;10.77;;;8.32;;
64826;SDS011;51265;53.972;12.286;2023-04-15T09:43:51;11.63;;;7.85;;
64826;SDS011;51265;53.972;12.286;2023-04-15T09:46:18;11.90;;;8.00;;
64826;SDS011;51265;53.972;12.286;2023-04-15T09:48:44;10.18;;;7.60;;
64826;SDS011;51265;53.972;12.286;2023-04-15T09:51:11;10.23;;;7.97;;
64826;SDS011;51265;53.972;12.286;2023-04-15T09:53:37;10.18;;;7.78;;
64826;SDS011;51265;53.972;12.286;2023-04-15T09:56:04;10.73;;;7.25;;
64826;SDS011;51265;53.972;12.286;2023-04-15T09:58:33;9.70;;;7.15;;
64826;SDS011;51265;53.972;12.286;2023-04-15T10:01:01;9.05;;;7.88;;
64826;SDS011;51265;53.972;12.286;2023-04-15T10:03:29;10.35;;;8.20;;
64826;SDS011;51265;53.972;12.286;2023-04-15T10:05:59;9.00;;;7.40;;
64826;SDS011;51265;53.972;12.286;2023-04-15T10:08:27;10.18;;;7.85;;
64826;SDS011;51265;53.972;12.286;2023-04-15T10:10:55;10.02;;;7.40;;
64826;SDS011;51265;53.972;12.286;2023-04-15T10:13:23;11.63;;;7.65;;
64826;SDS011;51265;53.972;12.286;2023-04-15T10:16:00;10.23;;;7.65;;
64826;SDS011;51265;53.972;12.286;2023-04-15T10:18:37;9.38;;;6.82;;
64826;SDS011;51265;53.972;12.286;2023-04-15T10:21:06;13.25;;;9.32;;
64826;SDS011;51265;53.972;12.286;2023-04-15T10:23:33;15.63;;;11.23;;
64826;SDS011;51265;53.972;12.286;2023-04-15T10:26:01;10.98;;;7.85;;
64826;SDS011;51265;53.972;12.286;2023-04-15T10:28:30;13.05;;;7.35;;
64826;SDS011;51265;53.972;12.286;2023-04-15T10:30:56;8.98;;;7.53;;
64826;SDS011;51265;53.972;12.286;2023-04-15T10:33:24;10.95;;;7.85;;
64826;SDS011;51265;53.972;12.286;2023-04-15T10:35:52;10.93;;;8.00;;
64826;SDS011;51265;53.972;12.286;2023-04-15T10:43:55;10.50;;;7.55;;
64826;SDS011;51265;53.972;12.286;2023-04-15T10:46:34;10.48;;;7.85;;
64826;SDS011;51265;53.972;12.286;2023-04-15T10:49:11;13.55;;;7.90;;
64826;SDS011;51265;53.972;12.286;2023-04-15T10:54:15;11.32;;;8.15;;
64826;SDS011;51265;53.972;12.286;2023-04-15T11:05:22;9.40;;;6.85;;
64826;SDS011;51265;53.972;12.286;2023-04-15T11:08:09;8.40;;;6.43;;
64826;SDS011;51265;53.972;12.286;2023-04-15T11:13:03;9.63;;;6.25;;
64826;SDS011;51265;53.972;12.286;2023-04-15T11:15:43;10.98;;;6.93;;
64826;SDS011;51265;53.972;12.286;2023-04-15T11:20:38;8.77;;;6.95;;
64826;SDS011;51265;53.972;12.286;2023-04-15T11:23:08;15.00;;;10.82;;
64826;SDS011;51265;53.972;12.286;2023-04-15T11:25:35;8.57;;;6.43;;
64826;SDS011;51265;53.972;12.286;2023-04-15T11:28:05;7.45;;;5.80;;
64826;SDS011;51265;53.972;12.286;2023-04-15T11:30:33;7.65;;;5.63;;
64826;SDS011;51265;53.972;12.286;2023-04-15T11:33:06;8.90;;;6.72;;
64826;SDS011;51265;53.972;12.286;2023-04-15T11:35:34;9.20;;;7.03;;
64826;SDS011;51265;53.972;12.286;2023-04-15T11:38:02;9.13;;;6.75;;
64826;SDS011;51265;53.972;12.286;2023-04-15T11:40:29;9.82;;;7.15;;
64826;SDS011;51265;53.972;12.286;2023-04-15T11:43:03;10.23;;;7.18;;
64826;SDS011;51265;53.972;12.286;2023-04-15T11:45:36;9.27;;;6.38;;
64826;SDS011;51265;53.972;12.286;2023-04-15T11:48:13;10.65;;;6.70;;
64826;SDS011;51265;53.972;12.286;2023-04-15T11:50:40;12.40;;;7.75;;
64826;SDS011;51265;53.972;12.286;2023-04-15T11:53:07;10.63;;;6.88;;
64826;SDS011;51265;53.972;12.286;2023-04-15T11:55:44;8.63;;;6.88;;
64826;SDS011;51265;53.972;12.286;2023-04-15T11:58:17;9.95;;;6.05;;
64826;SDS011;51265;53.972;12.286;2023-04-15T12:00:52;9.52;;;7.00;;
64826;SDS011;51265;53.972;12.286;2023-04-15T12:03:41;10.95;;;6.78;;
64826;SDS011;51265;53.972;12.286;2023-04-15T12:06:14;16.70;;;10.98;;
64826;SDS011;51265;53.972;12.286;2023-04-15T12:11:33;12.77;;;10.20;;
64826;SDS011;51265;53.972;12.286;2023-04-15T12:17:01;13.82;;;10.23;;
64826;SDS011;51265;53.972;12.286;2023-04-15T12:19:41;13.43;;;10.68;;
64826;SDS011;51265;53.972;12.286;2023-04-15T12:22:11;14.80;;;11.07;;
64826;SDS011;51265;53.972;12.286;2023-04-15T12:24:39;13.93;;;10.73;;
64826;SDS011;51265;53.972;12.286;2023-04-15T12:27:10;15.00;;;10.60;;
64826;SDS011;51265;53.972;12.286;2023-04-15T12:29:48;13.00;;;9.98;;
64826;SDS011;51265;53.972;12.286;2023-04-15T12:32:15;15.88;;;11.73;;
64826;SDS011;51265;53.972;12.286;2023-04-15T12:34:51;18.50;;;11.23;;
64826;SDS011;51265;53.972;12.286;2023-04-15T12:37:18;13.18;;;10.30;;
64826;SDS011;51265;53.972;12.286;2023-04-15T12:39:47;15.38;;;9.63;;
64826;SDS011;51265;53.972;12.286;2023-04-15T12:42:15;12.60;;;9.70;;
64826;SDS011;51265;53.972;12.286;2023-04-15T12:44:42;15.95;;;10.45;;
64826;SDS011;51265;53.972;12.286;2023-04-15T12:47:09;13.88;;;10.43;;
64826;SDS011;51265;53.972;12.286;2023-04-15T12:49:37;14.98;;;10.70;;
64826;SDS011;51265;53.972;12.286;2023-04-15T12:52:04;17.13;;;10.85;;
64826;SDS011;51265;53.972;12.286;2023-04-15T12:54:30;15.80;;;11.27;;
64826;SDS011;51265;53.972;12.286;2023-04-15T12:56:57;15.48;;;11.95;;
64826;SDS011;51265;53.972;12.286;2023-04-15T12:59:24;18.88;;;11.60;;
64826;SDS011;51265;53.972;12.286;2023-04-15T13:01:52;15.77;;;11.65;;
64826;SDS011;51265;53.972;12.286;2023-04-15T13:04:19;14.50;;;11.80;;
64826;SDS011;51265;53.972;12.286;2023-04-15T13:06:46;17.17;;;12.43;;
64826;SDS011;51265;53.972;12.286;2023-04-15T13:09:12;17.23;;;12.77;;
64826;SDS011;51265;53.972;12.286;2023-04-15T13:11:39;15.95;;;12.45;;
64826;SDS011;51265;53.972;12.286;2023-04-15T13:14:07;16.88;;;13.13;;
64826;SDS011;51265;53.972;12.286;2023-04-15T13:16:34;16.10;;;12.80;;
64826;SDS011;51265;53.972;12.286;2023-04-15T13:19:01;18.88;;;13.65;;
64826;SDS011;51265;53.972;12.286;2023-04-15T13:21:29;17.70;;;12.73;;
64826;SDS011;51265;53.972;12.286;2023-04-15T13:23:59;16.88;;;13.23;;
64826;SDS011;51265;53.972;12.286;2023-04-15T13:26:26;19.95;;;14.13;;
64826;SDS011;51265;53.972;12.286;2023-04-15T13:28:53;16.35;;;12.60;;
64826;SDS011;51265;53.972;12.286;2023-04-15T13:31:20;19.42;;;13.27;;
64826;SDS011;51265;53.972;12.286;2023-04-15T13:33:46;20.52;;;12.65;;
64826;SDS011;51265;53.972;12.286;2023-04-15T13:36:13;18.20;;;12.90;;
64826;SDS011;51265;53.972;12.286;2023-04-15T13:38:39;17.02;;;13.38;;
64826;SDS011;51265;53.972;12.286;2023-04-15T13:41:05;18.90;;;13.38;;
64826;SDS011;51265;53.972;12.286;2023-04-15T13:43:32;18.02;;;13.50;;
64826;SDS011;51265;53.972;12.286;2023-04-15T13:45:59;18.95;;;13.27;;
64826;SDS011;51265;53.972;12.286;2023-04-15T13:48:25;18.80;;;14.18;;
64826;SDS011;51265;53.972;12.286;2023-04-15T13:50:51;19.58;;;14.05;;
64826;SDS011;51265;53.972;12.286;2023-04-15T13:53:18;19.63;;;13.77;;
64826;SDS011;51265;53.972;12.286;2023-04-15T13:55:44;19.48;;;14.57;;
64826;SDS011;51265;53.972;12.286;2023-04-15T13:58:11;18.40;;;14.32;;
64826;SDS011;51265;53.972;12.286;2023-04-15T14:00:37;21.90;;;14.25;;
64826;SDS011;51265;53.972;12.286;2023-04-15T14:03:04;18.75;;;13.23;;
64826;SDS011;51265;53.972;12.286;2023-04-15T14:05:30;20.20;;;13.75;;
64826;SDS011;51265;53.972;12.286;2023-04-15T14:07:58;20.70;;;15.00;;
64826;SDS011;51265;53.972;12.286;2023-04-15T14:10:25;37.47;;;26.13;;
64826;SDS011;51265;53.972;12.286;2023-04-15T14:12:51;46.30;;;31.38;;
64826;SDS011;51265;53.972;12.286;2023-04-15T14:15:17;19.60;;;15.27;;
64826;SDS011;51265;53.972;12.286;2023-04-15T14:17:44;22.13;;;13.73;;
64826;SDS011;51265;53.972;12.286;2023-04-15T14:20:10;20.25;;;13.95;;
64826;SDS011;51265;53.972;12.286;2023-04-15T14:22:37;17.42;;;13.30;;
64826;SDS011;51265;53.972;12.286;2023-04-15T14:25:03;24.10;;;14.60;;
64826;SDS011;51265;53.972;12.286;2023-04-15T14:27:31;21.52;;;14.70;;
64826;SDS011;51265;53.972;12.286;2023-04-15T14:29:57;20.80;;;13.90;;
64826;SDS011;51265;53.972;12.286;2023-04-15T14:32:24;18.67;;;13.35;;
64826;SDS011;51265;53.972;12.286;2023-04-15T14:34:51;18.95;;;14.45;;
64826;SDS011;51265;53.972;12.286;2023-04-15T14:37:18;21.58;;;14.13;;
64826;SDS011;51265;53.972;12.286;2023-04-15T14:39:44;20.05;;;14.07;;